Time;durP1;ratioP1;P1;durP2;ratioP2;P2;SDS_P1;SDS_P2;PMS_P1;PMS_P2;Temp;Humidity;BMP_temperature;BMP_pressure;BME280_temperature;BME280_humidity;BME280_pressure;Samples;Min_cycle;Max_cycle;Signal;HPM_P1;HPM_P2
2022/03/26 00:10:58;;;;;;;18.47;8.90;;;;;;;4.71;44.45;100848.38;30995064;28;20047;-76
2022/03/26 00:26:01;;;;;;;18.07;8.33;;;;;;;4.68;44.14;100827.56;31001874;28;20146;-76
2022/03/26 00:41:03;;;;;;;18.00;8.20;;;;;;;4.90;43.52;100834.06;31008157;28;20051;-76
2022/03/26 00:56:05;;;;;;;21.87;8.90;;;;;;;5.18;43.05;100825.63;30994268;28;20051;-75
2022/03/26 01:11:07;;;;;;;24.87;9.47;;;;;;;5.29;42.68;100818.44;30981261;28;20058;-75
2022/03/26 01:26:09;;;;;;;19.60;8.53;;;;;;;5.32;42.00;100825.81;30987493;28;20053;-75
2022/03/26 01:41:11;;;;;;;18.67;8.70;;;;;;;5.29;43.19;100827.31;30983959;28;20401;-76
2022/03/26 01:56:16;;;;;;;17.70;7.97;;;;;;;5.24;42.39;100833.00;30991217;28;20046;-75
2022/03/26 02:11:18;;;;;;;17.03;7.87;;;;;;;5.18;41.55;100826.41;30979385;28;20050;-75
2022/03/26 02:26:26;;;;;;;14.03;6.10;;;;;;;5.02;40.88;100826.53;30972530;28;20054;-76
2022/03/26 02:41:28;;;;;;;16.53;6.53;;;;;;;4.73;41.63;100824.56;30983859;28;20066;-75
2022/03/26 02:56:30;;;;;;;14.63;6.50;;;;;;;4.55;42.70;100820.81;30982962;28;20098;-75
2022/03/26 03:11:33;;;;;;;12.30;6.20;;;;;;;4.41;42.96;100819.47;30962909;28;20066;-75
2022/03/26 03:26:35;;;;;;;16.47;6.73;;;;;;;4.17;43.47;100819.81;30978862;28;20046;-76
2022/03/26 03:41:38;;;;;;;15.97;7.43;;;;;;;3.81;45.75;100822.97;30956377;28;20050;-75
2022/03/26 03:56:41;;;;;;;15.30;7.27;;;;;;;3.60;45.64;100840.19;30975174;28;20479;-75
2022/03/26 04:11:44;;;;;;;15.17;7.40;;;;;;;3.62;45.10;100816.47;30963392;28;20054;-76
2022/03/26 04:26:46;;;;;;;16.97;8.17;;;;;;;3.91;45.42;100822.41;30977585;28;20646;-76
2022/03/26 04:41:49;;;;;;;14.17;6.53;;;;;;;4.28;45.11;100825.34;30986795;28;20058;-76
2022/03/26 04:56:51;;;;;;;20.37;6.87;;;;;;;4.71;44.35;100827.63;31012540;28;20109;-76
2022/03/26 05:11:53;;;;;;;20.40;7.40;;;;;;;5.38;44.21;100835.13;30981350;28;20050;-77
2022/03/26 05:26:56;;;;;;;17.80;7.90;;;;;;;6.37;44.47;100838.94;30968697;28;20054;-76
2022/03/26 05:41:58;;;;;;;19.00;8.87;;;;;;;7.32;44.83;100842.72;30978453;28;20050;-76
2022/03/26 05:57:00;;;;;;;21.23;8.70;;;;;;;8.61;45.31;100841.94;30987305;28;20050;-78
2022/03/26 06:12:03;;;;;;;17.37;8.97;;;;;;;10.20;42.89;100832.53;30974848;28;20054;-77
2022/03/26 06:27:06;;;;;;;23.07;10.30;;;;;;;11.57;40.96;100823.53;30984791;28;20062;-76
2022/03/26 06:42:09;;;;;;;12.70;8.10;;;;;;;12.56;39.66;100822.09;30989759;28;20065;-78
2022/03/26 06:57:15;;;;;;;16.53;9.00;;;;;;;13.63;38.65;100809.25;30992477;28;20089;-75
2022/03/26 07:12:18;;;;;;;15.10;8.10;;;;;;;14.85;36.19;100805.25;30980561;28;20083;-78
2022/03/26 07:27:21;;;;;;;16.77;7.37;;;;;;;15.95;34.19;100810.38;30984783;28;20061;-78
2022/03/26 07:42:23;;;;;;;13.07;6.50;;;;;;;16.86;32.03;100799.63;30972749;28;20050;-77
2022/03/26 07:57:26;;;;;;;13.02;6.90;;;;;;;17.64;30.87;100774.84;30997467;28;20050;-78
2022/03/26 08:12:28;;;;;;;13.57;7.57;;;;;;;18.21;30.24;100761.63;30976837;28;20494;-73
2022/03/26 08:27:31;;;;;;;13.20;7.35;;;;;;;18.93;29.00;100722.44;31026463;28;20050;-74
2022/03/26 08:42:34;;;;;;;23.00;8.13;;;;;;;18.96;27.94;100701.50;31001891;28;20058;-74
2022/03/26 08:57:36;;;;;;;14.52;7.18;;;;;;;19.09;27.19;100663.56;30980780;28;20065;-73
2022/03/26 09:12:38;;;;;;;13.05;7.95;;;;;;;19.50;26.28;100653.00;30972116;28;20478;-72
2022/03/26 09:27:40;;;;;;;16.08;10.95;;;;;;;20.09;25.46;100643.78;30984098;28;20137;-74
2022/03/26 09:42:44;;;;;;;18.57;9.47;;;;;;;20.48;24.74;100616.25;30974395;28;20096;-73
2022/03/26 09:57:48;;;;;;;24.10;9.20;;;;;;;20.43;24.02;100595.59;30988205;28;20506;-74
2022/03/26 10:12:51;;;;;;;16.13;8.55;;;;;;;20.65;23.80;100578.69;31008339;28;20058;-79
2022/03/26 10:27:56;;;;;;;16.70;8.75;;;;;;;20.48;23.76;100530.75;30996691;28;20058;-73
2022/03/26 10:43:07;;;;;;;21.73;9.65;;;;;;;20.57;23.25;100500.31;30982057;28;20498;-72
2022/03/26 10:58:10;;;;;;;15.98;9.25;;;;;;;20.54;23.33;100478.47;30986861;28;20058;-72
2022/03/26 11:13:15;;;;;;;16.37;7.93;;;;;;;20.52;23.64;100443.09;31009154;28;20501;-72
2022/03/26 11:28:24;;;;;;;16.83;8.68;;;;;;;20.85;22.53;100419.97;30877219;28;20050;-72
2022/03/26 11:43:44;;;;;;;13.82;7.78;;;;;;;21.11;22.39;100387.69;30867772;28;20469;-71
2022/03/26 11:59:03;;;;;;;14.02;7.40;;;;;;;21.17;23.17;100363.66;30884002;28;20506;-73
2022/03/26 12:14:08;;;;;;;14.95;7.82;;;;;;;18.68;25.01;100354.28;30901474;28;20050;-72
2022/03/26 12:29:12;;;;;;;13.25;8.05;;;;;;;17.00;26.63;100338.41;31010241;28;20045;-73
2022/03/26 12:44:17;;;;;;;18.63;8.30;;;;;;;16.50;28.25;100293.06;30998405;28;20058;-72
2022/03/26 12:59:19;;;;;;;12.37;8.27;;;;;;;16.29;28.62;100287.25;30999211;28;20066;-72
2022/03/26 13:14:21;;;;;;;15.30;7.93;;;;;;;15.98;29.02;100262.66;30971336;28;20054;-86
2022/03/26 13:29:28;;;;;;;21.20;7.97;;;;;;;15.75;29.57;100224.09;30858523;28;20055;-72
2022/03/26 13:44:30;;;;;;;15.30;9.13;;;;;;;15.48;30.03;100189.91;30852683;28;20051;-71
2022/03/26 13:59:37;;;;;;;11.93;7.77;;;;;;;15.16;30.40;100177.41;30841245;28;20065;-71
2022/03/26 14:14:41;;;;;;;15.07;7.70;;;;;;;14.90;30.47;100159.66;30839217;28;20054;-77
2022/03/26 14:29:43;;;;;;;14.67;8.17;;;;;;;14.63;30.56;100136.41;30950186;28;20450;-72
2022/03/26 14:44:50;;;;;;;13.10;7.80;;;;;;;14.45;30.98;100130.81;30951464;28;20050;-72
2022/03/26 14:59:52;;;;;;;12.27;7.23;;;;;;;14.22;30.97;100101.91;30957890;28;20058;-76
2022/03/26 15:14:55;;;;;;;12.60;7.60;;;;;;;13.93;31.54;100104.88;30970762;28;20430;-78
2022/03/26 15:29:57;;;;;;;16.27;7.37;;;;;;;13.61;32.42;100089.53;30959349;28;20050;-72
2022/03/26 15:45:01;;;;;;;13.67;8.13;;;;;;;13.38;33.49;100078.22;30964949;28;20057;-71
2022/03/26 16:00:08;;;;;;;14.47;7.20;;;;;;;13.02;33.70;100075.78;30958816;28;20076;-69
2022/03/26 16:15:10;;;;;;;;;;;;;;;12.66;34.65;100052.34;30959634;28;20054;-70
2022/03/26 16:30:12;;;;;;;13.17;6.20;;;;;;;12.29;35.26;100034.69;30961771;28;19922;-70
2022/03/26 16:45:15;;;;;;;12.07;6.23;;;;;;;11.99;35.41;100037.88;30981150;28;21391;-71
2022/03/26 17:00:17;;;;;;;15.77;6.70;;;;;;;11.65;38.69;100047.25;30976305;28;20046;-71
2022/03/26 17:15:19;;;;;;;23.00;8.70;;;;;;;11.25;40.58;100031.13;30994390;28;20062;-76
2022/03/26 17:30:22;;;;;;;21.23;8.70;;;;;;;10.87;42.14;100016.47;30983996;28;20387;-76
2022/03/26 17:45:25;;;;;;;20.93;8.27;;;;;;;10.58;42.36;99989.97;30973778;28;20881;-77
2022/03/26 18:00:27;;;;;;;13.30;7.57;;;;;;;10.42;42.29;99975.56;30973067;28;20435;-77
2022/03/26 18:15:29;;;;;;;17.73;7.17;;;;;;;10.01;43.37;99943.44;30957596;28;20403;-76
2022/03/26 18:30:32;;;;;;;12.13;6.80;;;;;;;9.81;43.99;99938.78;30963800;28;20062;-76
2022/03/26 18:45:34;;;;;;;17.83;7.67;;;;;;;9.52;45.92;99884.34;30973432;28;20060;-76
2022/03/26 19:00:39;;;;;;;19.80;7.03;;;;;;;9.36;46.42;99888.91;30957499;28;20142;-77
2022/03/26 19:15:42;;;;;;;15.80;6.77;;;;;;;9.21;46.44;99853.22;30970541;28;20085;-78
2022/03/26 19:30:45;;;;;;;13.13;7.47;;;;;;;9.21;45.91;99826.13;30964185;28;20061;-78
2022/03/26 19:45:47;;;;;;;15.10;7.10;;;;;;;9.13;45.70;99814.66;30944819;28;20077;-78
2022/03/26 20:00:50;;;;;;;14.63;7.13;;;;;;;9.09;46.05;99776.03;30950306;28;20054;-77
2022/03/26 20:15:53;;;;;;;18.87;6.63;;;;;;;8.97;46.54;99776.66;30966131;28;20070;-77
2022/03/26 20:30:56;;;;;;;15.50;6.53;;;;;;;8.80;47.33;99742.53;30974989;28;20054;-77
2022/03/26 20:45:58;;;;;;;14.00;7.30;;;;;;;8.69;48.99;99718.38;30984702;28;20058;-76
2022/03/26 21:01:00;;;;;;;13.77;6.80;;;;;;;8.57;49.96;99683.81;30979210;28;20076;-77
2022/03/26 21:16:03;;;;;;;13.93;8.17;;;;;;;8.46;51.04;99696.78;30971938;28;20050;-76
2022/03/26 21:31:05;;;;;;;12.27;7.20;;;;;;;8.50;50.86;99703.63;30960305;28;20772;-77
2022/03/26 21:46:09;;;;;;;13.53;7.30;;;;;;;8.59;50.53;99688.81;30969235;28;20062;-76
2022/03/26 22:01:11;;;;;;;11.73;6.10;;;;;;;8.68;51.04;99676.28;30967639;28;20085;-77
2022/03/26 22:16:14;;;;;;;11.97;6.20;;;;;;;8.71;52.40;99674.69;30931222;28;1586621;-77
2022/03/26 22:31:17;;;;;;;12.93;5.83;;;;;;;8.85;55.11;99680.56;30990123;28;20043;-77
2022/03/26 22:46:19;;;;;;;14.63;6.57;;;;;;;8.81;57.70;99668.28;30980445;28;20042;-77
2022/03/26 23:01:27;;;;;;;14.77;6.37;;;;;;;8.95;69.37;99623.94;30960067;28;20052;-76
2022/03/26 23:16:29;;;;;;;13.03;6.80;;;;;;;8.78;72.12;99609.56;30965930;28;20082;-77
2022/03/26 23:31:31;;;;;;;11.03;6.40;;;;;;;8.79;75.56;99602.97;30987970;28;20042;-77
2022/03/26 23:46:34;;;;;;;14.47;5.80;;;;;;;8.62;82.02;99585.16;30987453;28;20073;-69
